Terminal Aerodrome Forecast
Issued by NWS

Home | Current Version | Previous Version | Text Only | Print | Product List | Glossary On
Versions: 1 2 3 4 5 6 7 8 9 10 11 12 13 14 15 16 17 18 19 20 21 22 23
782
FTUS43 KAPX 230520
TAFTVC
TAF
KTVC 230520Z 2306/2406 00000KT 1/2SM -DZ FG OVC002
     FM231600 04004KT 2SM -RA BR OVC008
     FM240000 VRB03KT 1SM -RA BR OVC003=

USA.gov is the U.S. government's official web portal to all federal, state and local government web resources and services.